KSAF/SAF METAR and TAF weather

Enter ICAO airport designator
Station Type Date Time Source
KSAF METAR 2020/11/27 01:53 UTC NOAA

KSAF 270153Z 35006KT 10SM CLR M01/M11 A3004 RMK AO2 SLP180 T10061111


Station Type Date Time Source
KSAF Decoded METAR 2020/11/27 01:53 UTC NOAA

SANTA FE COUNTY MUNICIPAL, NM, United States (KSAF) 35-37N 106-05W 1930M
Nov 26, 2020 - 08:53 PM EST / 2020.11.27 0153 UTC
Wind: from the N (350 degrees) at 7 MPH (6 KT):0
Visibility: 10 mile(s):0
Sky conditions: clear
Temperature: 30.9 F (-0.6 C)
Windchill: 24 F (-4 C):1
Dew Point: 12.0 F (-11.1 C)
Relative Humidity: 44%
Pressure (altimeter): 30.04 in. Hg (1017 hPa)
ob: KSAF 270153Z 35006KT 10SM CLR M01/M11 A3004 RMK AO2 SLP180 T10061111
cycle: 2

Station Type Date Time Source
KSAF TAF 2020/11/26 18:22 UTC NOAA

TAF KSAF 261720Z 2618/2718 VRB05KT P6SM FEW250
FM261900 25008KT P6SM FEW250
FM270100 03006KT P6SM FEW250
FM271000 13017G27KT P6SM BKN080

Example: see airport list